sensor_id;sensor_type;location;lat;lon;timestamp;P1;durP1;ratioP1;P2;durP2;ratioP2
19879;SDS011;10102;50.828;4.416;2022-07-15T00:01:15;8.30;;;2.45;;
19879;SDS011;10102;50.828;4.416;2022-07-15T00:03:40;7.10;;;2.70;;
19879;SDS011;10102;50.828;4.416;2022-07-15T00:06:06;6.53;;;2.63;;
19879;SDS011;10102;50.828;4.416;2022-07-15T00:08:32;9.30;;;2.88;;
19879;SDS011;10102;50.828;4.416;2022-07-15T00:10:57;6.45;;;2.70;;
19879;SDS011;10102;50.828;4.416;2022-07-15T00:13:24;10.80;;;2.40;;
19879;SDS011;10102;50.828;4.416;2022-07-15T00:15:50;5.75;;;2.70;;
19879;SDS011;10102;50.828;4.416;2022-07-15T00:18:16;9.80;;;2.90;;
19879;SDS011;10102;50.828;4.416;2022-07-15T00:20:42;7.18;;;2.53;;
19879;SDS011;10102;50.828;4.416;2022-07-15T00:23:09;4.07;;;2.45;;
19879;SDS011;10102;50.828;4.416;2022-07-15T00:25:35;9.73;;;2.63;;
19879;SDS011;10102;50.828;4.416;2022-07-15T00:28:04;11.88;;;2.80;;
19879;SDS011;10102;50.828;4.416;2022-07-15T00:30:34;6.65;;;2.45;;
19879;SDS011;10102;50.828;4.416;2022-07-15T00:33:01;8.13;;;2.53;;
19879;SDS011;10102;50.828;4.416;2022-07-15T00:35:28;10.38;;;2.92;;
19879;SDS011;10102;50.828;4.416;2022-07-15T00:37:55;8.98;;;3.28;;
19879;SDS011;10102;50.828;4.416;2022-07-15T00:40:21;8.00;;;2.53;;
19879;SDS011;10102;50.828;4.416;2022-07-15T00:42:47;6.60;;;3.08;;
19879;SDS011;10102;50.828;4.416;2022-07-15T00:45:16;10.23;;;2.72;;
19879;SDS011;10102;50.828;4.416;2022-07-15T00:47:45;7.82;;;2.67;;
19879;SDS011;10102;50.828;4.416;2022-07-15T00:50:13;11.75;;;3.47;;
19879;SDS011;10102;50.828;4.416;2022-07-15T00:52:41;8.30;;;3.10;;
19879;SDS011;10102;50.828;4.416;2022-07-15T00:55:10;7.72;;;2.90;;
19879;SDS011;10102;50.828;4.416;2022-07-15T00:57:38;9.35;;;3.05;;
19879;SDS011;10102;50.828;4.416;2022-07-15T01:00:07;10.05;;;3.30;;
19879;SDS011;10102;50.828;4.416;2022-07-15T01:02:38;13.90;;;3.22;;
19879;SDS011;10102;50.828;4.416;2022-07-15T01:05:05;6.88;;;2.53;;
19879;SDS011;10102;50.828;4.416;2022-07-15T01:07:33;10.23;;;2.85;;
19879;SDS011;10102;50.828;4.416;2022-07-15T01:09:59;6.53;;;2.72;;
19879;SDS011;10102;50.828;4.416;2022-07-15T01:12:25;14.82;;;3.08;;
19879;SDS011;10102;50.828;4.416;2022-07-15T01:14:52;11.55;;;2.97;;
19879;SDS011;10102;50.828;4.416;2022-07-15T01:17:17;7.15;;;2.50;;
19879;SDS011;10102;50.828;4.416;2022-07-15T01:19:43;8.27;;;3.50;;
19879;SDS011;10102;50.828;4.416;2022-07-15T01:22:09;7.13;;;2.72;;
19879;SDS011;10102;50.828;4.416;2022-07-15T01:24:35;10.13;;;3.22;;
19879;SDS011;10102;50.828;4.416;2022-07-15T01:27:01;6.10;;;2.67;;
19879;SDS011;10102;50.828;4.416;2022-07-15T01:29:28;7.03;;;2.80;;
19879;SDS011;10102;50.828;4.416;2022-07-15T01:31:54;11.52;;;2.80;;
19879;SDS011;10102;50.828;4.416;2022-07-15T01:34:20;6.28;;;2.55;;
19879;SDS011;10102;50.828;4.416;2022-07-15T01:36:46;8.15;;;3.33;;
19879;SDS011;10102;50.828;4.416;2022-07-15T01:39:11;13.80;;;3.55;;
19879;SDS011;10102;50.828;4.416;2022-07-15T01:41:37;12.25;;;3.35;;
19879;SDS011;10102;50.828;4.416;2022-07-15T01:44:03;9.45;;;3.60;;
19879;SDS011;10102;50.828;4.416;2022-07-15T01:46:29;14.52;;;3.33;;
19879;SDS011;10102;50.828;4.416;2022-07-15T01:48:55;6.90;;;3.20;;
19879;SDS011;10102;50.828;4.416;2022-07-15T01:51:39;9.98;;;3.17;;
19879;SDS011;10102;50.828;4.416;2022-07-15T01:54:05;6.47;;;2.83;;
19879;SDS011;10102;50.828;4.416;2022-07-15T01:56:31;7.40;;;3.28;;
19879;SDS011;10102;50.828;4.416;2022-07-15T01:58:57;13.50;;;3.58;;
19879;SDS011;10102;50.828;4.416;2022-07-15T02:01:23;10.80;;;3.60;;
19879;SDS011;10102;50.828;4.416;2022-07-15T02:03:49;9.93;;;3.47;;
19879;SDS011;10102;50.828;4.416;2022-07-15T02:06:15;16.85;;;3.72;;
19879;SDS011;10102;50.828;4.416;2022-07-15T02:08:41;9.25;;;3.67;;
19879;SDS011;10102;50.828;4.416;2022-07-15T02:11:07;8.48;;;3.40;;
19879;SDS011;10102;50.828;4.416;2022-07-15T02:13:33;15.52;;;4.13;;
19879;SDS011;10102;50.828;4.416;2022-07-15T02:15:58;12.65;;;3.75;;
19879;SDS011;10102;50.828;4.416;2022-07-15T02:18:24;13.05;;;3.78;;
19879;SDS011;10102;50.828;4.416;2022-07-15T02:20:50;12.35;;;3.67;;
19879;SDS011;10102;50.828;4.416;2022-07-15T02:23:16;13.55;;;3.78;;
19879;SDS011;10102;50.828;4.416;2022-07-15T02:25:41;10.85;;;4.00;;
19879;SDS011;10102;50.828;4.416;2022-07-15T02:28:08;7.43;;;3.03;;
19879;SDS011;10102;50.828;4.416;2022-07-15T02:30:34;10.25;;;3.08;;
19879;SDS011;10102;50.828;4.416;2022-07-15T02:33:02;6.47;;;3.47;;
19879;SDS011;10102;50.828;4.416;2022-07-15T02:35:29;15.05;;;3.38;;
19879;SDS011;10102;50.828;4.416;2022-07-15T02:37:56;14.95;;;3.60;;
19879;SDS011;10102;50.828;4.416;2022-07-15T02:40:22;11.32;;;3.50;;
19879;SDS011;10102;50.828;4.416;2022-07-15T02:42:52;6.78;;;3.28;;
19879;SDS011;10102;50.828;4.416;2022-07-15T02:45:20;5.65;;;3.88;;
19879;SDS011;10102;50.828;4.416;2022-07-15T02:47:48;6.80;;;3.08;;
19879;SDS011;10102;50.828;4.416;2022-07-15T02:50:15;12.05;;;3.05;;
19879;SDS011;10102;50.828;4.416;2022-07-15T02:52:41;8.23;;;3.00;;
19879;SDS011;10102;50.828;4.416;2022-07-15T02:55:07;10.38;;;3.15;;
19879;SDS011;10102;50.828;4.416;2022-07-15T02:57:34;8.25;;;3.03;;
19879;SDS011;10102;50.828;4.416;2022-07-15T03:00:00;6.13;;;3.03;;
19879;SDS011;10102;50.828;4.416;2022-07-15T03:02:27;10.48;;;2.80;;
19879;SDS011;10102;50.828;4.416;2022-07-15T03:04:53;13.63;;;3.67;;
19879;SDS011;10102;50.828;4.416;2022-07-15T03:07:18;9.43;;;2.80;;
19879;SDS011;10102;50.828;4.416;2022-07-15T03:09:44;7.05;;;2.80;;
19879;SDS011;10102;50.828;4.416;2022-07-15T03:12:10;6.25;;;2.85;;
19879;SDS011;10102;50.828;4.416;2022-07-15T03:14:35;12.90;;;2.90;;
19879;SDS011;10102;50.828;4.416;2022-07-15T03:17:01;12.25;;;2.72;;
19879;SDS011;10102;50.828;4.416;2022-07-15T03:19:27;9.82;;;2.58;;
19879;SDS011;10102;50.828;4.416;2022-07-15T03:21:52;11.05;;;2.50;;
19879;SDS011;10102;50.828;4.416;2022-07-15T03:24:18;12.50;;;3.35;;
19879;SDS011;10102;50.828;4.416;2022-07-15T03:26:44;8.77;;;2.55;;
19879;SDS011;10102;50.828;4.416;2022-07-15T03:29:09;6.05;;;2.78;;
19879;SDS011;10102;50.828;4.416;2022-07-15T03:31:39;11.05;;;2.55;;
19879;SDS011;10102;50.828;4.416;2022-07-15T03:34:04;15.63;;;2.72;;
19879;SDS011;10102;50.828;4.416;2022-07-15T03:36:30;11.70;;;2.67;;
19879;SDS011;10102;50.828;4.416;2022-07-15T03:38:56;9.25;;;2.60;;
19879;SDS011;10102;50.828;4.416;2022-07-15T03:41:21;5.78;;;2.33;;
19879;SDS011;10102;50.828;4.416;2022-07-15T03:43:47;6.68;;;2.35;;
19879;SDS011;10102;50.828;4.416;2022-07-15T03:46:13;7.78;;;2.33;;
19879;SDS011;10102;50.828;4.416;2022-07-15T03:48:41;7.32;;;2.28;;
19879;SDS011;10102;50.828;4.416;2022-07-15T03:51:07;8.32;;;2.20;;
19879;SDS011;10102;50.828;4.416;2022-07-15T03:53:33;6.82;;;2.33;;
19879;SDS011;10102;50.828;4.416;2022-07-15T03:55:59;5.32;;;2.30;;
19879;SDS011;10102;50.828;4.416;2022-07-15T03:58:24;8.35;;;2.75;;
19879;SDS011;10102;50.828;4.416;2022-07-15T04:00:50;9.32;;;2.35;;
19879;SDS011;10102;50.828;4.416;2022-07-15T04:03:16;11.93;;;2.65;;
19879;SDS011;10102;50.828;4.416;2022-07-15T04:05:42;9.23;;;2.15;;
19879;SDS011;10102;50.828;4.416;2022-07-15T04:08:08;10.73;;;2.40;;
19879;SDS011;10102;50.828;4.416;2022-07-15T04:10:34;12.45;;;2.55;;
19879;SDS011;10102;50.828;4.416;2022-07-15T04:13:00;7.13;;;2.15;;
19879;SDS011;10102;50.828;4.416;2022-07-15T04:15:26;9.73;;;2.60;;
19879;SDS011;10102;50.828;4.416;2022-07-15T04:17:52;5.72;;;2.20;;
19879;SDS011;10102;50.828;4.416;2022-07-15T04:20:18;13.45;;;3.00;;
19879;SDS011;10102;50.828;4.416;2022-07-15T04:22:44;6.82;;;2.60;;
19879;SDS011;10102;50.828;4.416;2022-07-15T04:25:14;10.02;;;2.78;;
19879;SDS011;10102;50.828;4.416;2022-07-15T04:27:42;8.75;;;2.75;;
19879;SDS011;10102;50.828;4.416;2022-07-15T04:30:08;11.60;;;2.80;;
19879;SDS011;10102;50.828;4.416;2022-07-15T04:32:34;5.78;;;2.00;;
19879;SDS011;10102;50.828;4.416;2022-07-15T04:35:00;11.07;;;2.45;;
19879;SDS011;10102;50.828;4.416;2022-07-15T04:37:27;7.38;;;2.40;;
19879;SDS011;10102;50.828;4.416;2022-07-15T04:39:53;8.35;;;2.45;;
19879;SDS011;10102;50.828;4.416;2022-07-15T04:42:20;3.38;;;2.08;;
19879;SDS011;10102;50.828;4.416;2022-07-15T04:44:46;7.80;;;2.55;;
19879;SDS011;10102;50.828;4.416;2022-07-15T04:47:13;5.30;;;2.20;;
19879;SDS011;10102;50.828;4.416;2022-07-15T04:49:39;6.65;;;2.13;;
19879;SDS011;10102;50.828;4.416;2022-07-15T04:52:23;9.10;;;2.47;;
19879;SDS011;10102;50.828;4.416;2022-07-15T04:54:50;12.48;;;2.42;;
19879;SDS011;10102;50.828;4.416;2022-07-15T04:57:16;7.85;;;2.28;;
19879;SDS011;10102;50.828;4.416;2022-07-15T04:59:42;10.43;;;2.22;;
19879;SDS011;10102;50.828;4.416;2022-07-15T05:02:07;9.15;;;2.08;;
19879;SDS011;10102;50.828;4.416;2022-07-15T05:04:33;7.95;;;2.83;;
19879;SDS011;10102;50.828;4.416;2022-07-15T05:06:59;9.82;;;2.28;;
19879;SDS011;10102;50.828;4.416;2022-07-15T05:09:25;8.70;;;2.25;;
19879;SDS011;10102;50.828;4.416;2022-07-15T05:11:51;8.52;;;2.00;;
19879;SDS011;10102;50.828;4.416;2022-07-15T05:14:16;8.40;;;2.42;;
19879;SDS011;10102;50.828;4.416;2022-07-15T05:16:42;11.18;;;2.55;;
19879;SDS011;10102;50.828;4.416;2022-07-15T05:19:07;10.05;;;2.58;;
19879;SDS011;10102;50.828;4.416;2022-07-15T05:21:34;11.05;;;2.00;;
19879;SDS011;10102;50.828;4.416;2022-07-15T05:24:00;10.93;;;2.40;;
19879;SDS011;10102;50.828;4.416;2022-07-15T05:26:26;9.30;;;2.00;;
19879;SDS011;10102;50.828;4.416;2022-07-15T05:28:52;9.43;;;2.50;;
19879;SDS011;10102;50.828;4.416;2022-07-15T05:31:18;9.38;;;2.40;;
19879;SDS011;10102;50.828;4.416;2022-07-15T05:33:43;9.40;;;2.00;;
19879;SDS011;10102;50.828;4.416;2022-07-15T05:36:13;11.15;;;2.45;;
19879;SDS011;10102;50.828;4.416;2022-07-15T05:38:40;10.13;;;2.03;;
19879;SDS011;10102;50.828;4.416;2022-07-15T05:41:06;6.88;;;2.05;;
19879;SDS011;10102;50.828;4.416;2022-07-15T05:43:33;7.65;;;2.17;;
19879;SDS011;10102;50.828;4.416;2022-07-15T05:45:58;8.70;;;2.08;;
19879;SDS011;10102;50.828;4.416;2022-07-15T05:48:24;7.68;;;1.80;;
19879;SDS011;10102;50.828;4.416;2022-07-15T05:50:50;6.57;;;1.90;;
19879;SDS011;10102;50.828;4.416;2022-07-15T05:53:15;12.77;;;2.42;;
19879;SDS011;10102;50.828;4.416;2022-07-15T05:55:41;4.43;;;2.13;;
19879;SDS011;10102;50.828;4.416;2022-07-15T05:58:08;13.05;;;2.40;;
19879;SDS011;10102;50.828;4.416;2022-07-15T06:00:34;12.25;;;2.13;;
19879;SDS011;10102;50.828;4.416;2022-07-15T06:03:02;12.77;;;2.17;;
19879;SDS011;10102;50.828;4.416;2022-07-15T06:05:29;4.95;;;1.90;;
19879;SDS011;10102;50.828;4.416;2022-07-15T06:07:55;10.98;;;1.85;;
19879;SDS011;10102;50.828;4.416;2022-07-15T06:10:22;10.98;;;1.80;;
19879;SDS011;10102;50.828;4.416;2022-07-15T06:12:48;9.85;;;1.35;;
19879;SDS011;10102;50.828;4.416;2022-07-15T06:15:14;5.40;;;1.63;;
19879;SDS011;10102;50.828;4.416;2022-07-15T06:17:40;6.10;;;1.45;;
19879;SDS011;10102;50.828;4.416;2022-07-15T06:20:07;12.15;;;1.80;;
19879;SDS011;10102;50.828;4.416;2022-07-15T06:22:33;5.93;;;1.65;;
19879;SDS011;10102;50.828;4.416;2022-07-15T06:24:59;11.63;;;1.48;;
19879;SDS011;10102;50.828;4.416;2022-07-15T06:27:25;7.38;;;1.65;;
19879;SDS011;10102;50.828;4.416;2022-07-15T06:29:51;7.05;;;1.42;;
19879;SDS011;10102;50.828;4.416;2022-07-15T06:32:17;6.70;;;1.50;;
19879;SDS011;10102;50.828;4.416;2022-07-15T06:34:44;5.30;;;1.50;;
19879;SDS011;10102;50.828;4.416;2022-07-15T06:37:09;5.90;;;1.35;;
19879;SDS011;10102;50.828;4.416;2022-07-15T06:39:36;8.93;;;1.20;;
19879;SDS011;10102;50.828;4.416;2022-07-15T06:42:02;7.60;;;1.50;;
19879;SDS011;10102;50.828;4.416;2022-07-15T06:44:28;6.68;;;1.23;;
19879;SDS011;10102;50.828;4.416;2022-07-15T06:46:54;7.57;;;1.95;;
19879;SDS011;10102;50.828;4.416;2022-07-15T06:49:21;7.97;;;1.55;;
19879;SDS011;10102;50.828;4.416;2022-07-15T06:51:47;13.07;;;2.25;;
19879;SDS011;10102;50.828;4.416;2022-07-15T06:54:12;4.45;;;1.50;;
19879;SDS011;10102;50.828;4.416;2022-07-15T06:56:38;5.13;;;1.50;;
19879;SDS011;10102;50.828;4.416;2022-07-15T06:59:04;6.13;;;1.50;;
19879;SDS011;10102;50.828;4.416;2022-07-15T07:01:30;5.85;;;1.70;;
19879;SDS011;10102;50.828;4.416;2022-07-15T07:03:56;8.77;;;1.63;;
19879;SDS011;10102;50.828;4.416;2022-07-15T07:06:22;11.55;;;2.08;;
19879;SDS011;10102;50.828;4.416;2022-07-15T07:08:48;7.43;;;2.17;;
19879;SDS011;10102;50.828;4.416;2022-07-15T07:11:15;8.73;;;1.58;;
19879;SDS011;10102;50.828;4.416;2022-07-15T07:13:42;9.82;;;1.95;;
19879;SDS011;10102;50.828;4.416;2022-07-15T07:16:08;9.50;;;2.42;;
19879;SDS011;10102;50.828;4.416;2022-07-15T07:18:33;7.07;;;2.13;;
19879;SDS011;10102;50.828;4.416;2022-07-15T07:21:00;9.93;;;2.50;;
19879;SDS011;10102;50.828;4.416;2022-07-15T07:23:26;11.50;;;2.65;;
19879;SDS011;10102;50.828;4.416;2022-07-15T07:25:55;3.22;;;1.65;;
19879;SDS011;10102;50.828;4.416;2022-07-15T07:28:21;6.05;;;2.38;;
19879;SDS011;10102;50.828;4.416;2022-07-15T07:30:47;9.45;;;1.80;;
19879;SDS011;10102;50.828;4.416;2022-07-15T07:33:14;8.55;;;1.80;;
19879;SDS011;10102;50.828;4.416;2022-07-15T07:35:40;7.70;;;1.98;;
19879;SDS011;10102;50.828;4.416;2022-07-15T07:38:08;9.60;;;1.70;;
19879;SDS011;10102;50.828;4.416;2022-07-15T07:40:34;7.97;;;1.98;;
19879;SDS011;10102;50.828;4.416;2022-07-15T07:43:00;5.00;;;1.70;;
19879;SDS011;10102;50.828;4.416;2022-07-15T07:45:26;5.40;;;1.77;;
19879;SDS011;10102;50.828;4.416;2022-07-15T07:47:54;9.18;;;2.10;;
19879;SDS011;10102;50.828;4.416;2022-07-15T07:50:20;13.02;;;2.08;;
19879;SDS011;10102;50.828;4.416;2022-07-15T07:52:46;8.10;;;1.52;;
19879;SDS011;10102;50.828;4.416;2022-07-15T07:55:12;16.00;;;2.03;;
19879;SDS011;10102;50.828;4.416;2022-07-15T07:57:49;11.10;;;1.80;;
19879;SDS011;10102;50.828;4.416;2022-07-15T08:00:16;12.95;;;1.70;;
19879;SDS011;10102;50.828;4.416;2022-07-15T08:02:43;6.93;;;2.05;;
19879;SDS011;10102;50.828;4.416;2022-07-15T08:05:09;3.05;;;1.92;;
19879;SDS011;10102;50.828;4.416;2022-07-15T08:07:36;6.43;;;2.00;;
19879;SDS011;10102;50.828;4.416;2022-07-15T08:10:04;8.15;;;1.80;;
19879;SDS011;10102;50.828;4.416;2022-07-15T08:12:31;7.05;;;2.25;;
19879;SDS011;10102;50.828;4.416;2022-07-15T08:14:57;9.35;;;1.88;;
19879;SDS011;10102;50.828;4.416;2022-07-15T08:17:24;9.82;;;2.42;;
19879;SDS011;10102;50.828;4.416;2022-07-15T08:19:50;7.40;;;2.20;;
19879;SDS011;10102;50.828;4.416;2022-07-15T08:22:15;9.63;;;2.38;;
19879;SDS011;10102;50.828;4.416;2022-07-15T08:24:41;11.45;;;2.22;;
19879;SDS011;10102;50.828;4.416;2022-07-15T08:27:07;11.63;;;2.30;;
19879;SDS011;10102;50.828;4.416;2022-07-15T08:29:33;7.15;;;2.47;;
19879;SDS011;10102;50.828;4.416;2022-07-15T08:32:00;8.70;;;2.45;;
19879;SDS011;10102;50.828;4.416;2022-07-15T08:34:26;7.47;;;2.85;;
19879;SDS011;10102;50.828;4.416;2022-07-15T08:36:52;8.30;;;3.03;;
19879;SDS011;10102;50.828;4.416;2022-07-15T08:39:17;6.00;;;2.13;;
19879;SDS011;10102;50.828;4.416;2022-07-15T08:41:45;8.45;;;1.90;;
19879;SDS011;10102;50.828;4.416;2022-07-15T08:44:11;5.00;;;2.28;;
19879;SDS011;10102;50.828;4.416;2022-07-15T08:46:36;4.85;;;2.10;;
19879;SDS011;10102;50.828;4.416;2022-07-15T08:49:06;5.05;;;1.98;;
19879;SDS011;10102;50.828;4.416;2022-07-15T08:51:35;8.90;;;2.30;;
19879;SDS011;10102;50.828;4.416;2022-07-15T08:54:05;9.40;;;2.35;;
19879;SDS011;10102;50.828;4.416;2022-07-15T08:56:32;6.93;;;2.60;;
19879;SDS011;10102;50.828;4.416;2022-07-15T08:59:00;3.90;;;2.45;;
19879;SDS011;10102;50.828;4.416;2022-07-15T09:01:30;4.78;;;2.33;;
19879;SDS011;10102;50.828;4.416;2022-07-15T09:03:57;7.93;;;1.98;;
19879;SDS011;10102;50.828;4.416;2022-07-15T09:06:30;8.27;;;2.28;;
19879;SDS011;10102;50.828;4.416;2022-07-15T09:08:57;7.32;;;1.80;;
19879;SDS011;10102;50.828;4.416;2022-07-15T09:11:29;6.13;;;1.80;;
19879;SDS011;10102;50.828;4.416;2022-07-15T09:13:57;5.45;;;1.98;;
19879;SDS011;10102;50.828;4.416;2022-07-15T09:16:25;12.15;;;2.47;;
19879;SDS011;10102;50.828;4.416;2022-07-15T09:18:51;7.65;;;1.98;;
19879;SDS011;10102;50.828;4.416;2022-07-15T09:21:18;5.65;;;2.25;;
19879;SDS011;10102;50.828;4.416;2022-07-15T09:23:53;4.45;;;1.77;;
19879;SDS011;10102;50.828;4.416;2022-07-15T09:28:57;3.08;;;1.70;;
19879;SDS011;10102;50.828;4.416;2022-07-15T09:31:30;5.88;;;2.40;;
19879;SDS011;10102;50.828;4.416;2022-07-15T09:34:16;5.35;;;1.95;;
19879;SDS011;10102;50.828;4.416;2022-07-15T09:36:43;4.25;;;1.88;;
19879;SDS011;10102;50.828;4.416;2022-07-15T09:39:16;5.82;;;1.98;;
19879;SDS011;10102;50.828;4.416;2022-07-15T09:41:42;4.75;;;1.65;;
19879;SDS011;10102;50.828;4.416;2022-07-15T09:44:10;8.27;;;2.15;;
19879;SDS011;10102;50.828;4.416;2022-07-15T09:49:16;3.13;;;1.90;;
19879;SDS011;10102;50.828;4.416;2022-07-15T09:51:49;8.30;;;2.33;;
19879;SDS011;10102;50.828;4.416;2022-07-15T09:54:20;8.65;;;2.10;;
19879;SDS011;10102;50.828;4.416;2022-07-15T09:56:47;5.72;;;1.80;;
19879;SDS011;10102;50.828;4.416;2022-07-15T09:59:14;13.00;;;1.70;;
19879;SDS011;10102;50.828;4.416;2022-07-15T10:01:41;5.75;;;2.00;;
19879;SDS011;10102;50.828;4.416;2022-07-15T10:04:08;5.53;;;2.20;;
19879;SDS011;10102;50.828;4.416;2022-07-15T10:06:35;2.58;;;1.83;;
19879;SDS011;10102;50.828;4.416;2022-07-15T10:09:06;7.07;;;1.90;;
19879;SDS011;10102;50.828;4.416;2022-07-15T10:11:34;6.13;;;1.83;;
19879;SDS011;10102;50.828;4.416;2022-07-15T10:17:07;5.57;;;1.88;;
19879;SDS011;10102;50.828;4.416;2022-07-15T10:30:45;8.40;;;1.52;;
19879;SDS011;10102;50.828;4.416;2022-07-15T10:33:14;4.20;;;1.60;;
19879;SDS011;10102;50.828;4.416;2022-07-15T10:35:50;3.35;;;1.75;;
19879;SDS011;10102;50.828;4.416;2022-07-15T10:43:45;7.63;;;1.98;;
19879;SDS011;10102;50.828;4.416;2022-07-15T10:48:42;4.18;;;1.35;;
19879;SDS011;10102;50.828;4.416;2022-07-15T10:51:08;4.85;;;1.70;;
19879;SDS011;10102;50.828;4.416;2022-07-15T10:53:42;3.78;;;1.70;;
19879;SDS011;10102;50.828;4.416;2022-07-15T11:01:41;5.63;;;1.60;;
19879;SDS011;10102;50.828;4.416;2022-07-15T11:04:20;7.10;;;2.00;;
19879;SDS011;10102;50.828;4.416;2022-07-15T11:07:30;4.93;;;2.40;;
19879;SDS011;10102;50.828;4.416;2022-07-15T11:12:23;9.23;;;2.20;;
19879;SDS011;10102;50.828;4.416;2022-07-15T11:17:39;6.45;;;1.90;;
19879;SDS011;10102;50.828;4.416;2022-07-15T11:20:08;8.90;;;1.95;;
19879;SDS011;10102;50.828;4.416;2022-07-15T11:22:39;16.08;;;2.10;;
19879;SDS011;10102;50.828;4.416;2022-07-15T11:25:07;11.52;;;1.33;;
19879;SDS011;10102;50.828;4.416;2022-07-15T11:30:45;4.72;;;2.05;;
19879;SDS011;10102;50.828;4.416;2022-07-15T11:33:18;4.18;;;1.40;;
19879;SDS011;10102;50.828;4.416;2022-07-15T11:35:53;3.50;;;1.48;;
19879;SDS011;10102;50.828;4.416;2022-07-15T11:38:36;1.45;;;1.10;;
19879;SDS011;10102;50.828;4.416;2022-07-15T11:41:03;4.03;;;1.25;;
19879;SDS011;10102;50.828;4.416;2022-07-15T11:43:58;9.93;;;1.98;;
19879;SDS011;10102;50.828;4.416;2022-07-15T11:46:45;6.78;;;1.40;;
19879;SDS011;10102;50.828;4.416;2022-07-15T11:49:24;3.92;;;1.20;;
19879;SDS011;10102;50.828;4.416;2022-07-15T11:51:54;3.08;;;0.90;;
19879;SDS011;10102;50.828;4.416;2022-07-15T11:54:21;4.57;;;0.98;;
19879;SDS011;10102;50.828;4.416;2022-07-15T11:56:57;3.05;;;1.00;;
19879;SDS011;10102;50.828;4.416;2022-07-15T11:59:24;11.82;;;2.35;;
19879;SDS011;10102;50.828;4.416;2022-07-15T12:02:11;16.48;;;1.75;;
19879;SDS011;10102;50.828;4.416;2022-07-15T12:04:38;8.02;;;2.28;;
19879;SDS011;10102;50.828;4.416;2022-07-15T12:07:05;64.60;;;4.82;;
19879;SDS011;10102;50.828;4.416;2022-07-15T12:09:44;5.35;;;1.30;;
19879;SDS011;10102;50.828;4.416;2022-07-15T12:12:13;7.75;;;1.25;;
19879;SDS011;10102;50.828;4.416;2022-07-15T12:14:39;15.30;;;2.90;;
19879;SDS011;10102;50.828;4.416;2022-07-15T12:17:05;4.30;;;1.05;;
19879;SDS011;10102;50.828;4.416;2022-07-15T12:19:31;3.88;;;1.10;;
19879;SDS011;10102;50.828;4.416;2022-07-15T12:21:59;5.00;;;1.13;;
19879;SDS011;10102;50.828;4.416;2022-07-15T12:24:38;5.53;;;0.90;;
19879;SDS011;10102;50.828;4.416;2022-07-15T12:27:06;3.67;;;0.95;;
19879;SDS011;10102;50.828;4.416;2022-07-15T12:29:32;3.55;;;0.90;;
19879;SDS011;10102;50.828;4.416;2022-07-15T12:32:06;7.05;;;0.90;;
19879;SDS011;10102;50.828;4.416;2022-07-15T12:34:58;4.88;;;0.85;;
19879;SDS011;10102;50.828;4.416;2022-07-15T12:37:26;2.53;;;1.10;;
19879;SDS011;10102;50.828;4.416;2022-07-15T12:40:12;2.70;;;0.60;;
19879;SDS011;10102;50.828;4.416;2022-07-15T12:45:15;3.78;;;0.70;;
19879;SDS011;10102;50.828;4.416;2022-07-15T12:50:31;4.90;;;1.00;;
19879;SDS011;10102;50.828;4.416;2022-07-15T12:53:18;7.60;;;1.67;;
19879;SDS011;10102;50.828;4.416;2022-07-15T12:55:48;3.03;;;0.80;;
19879;SDS011;10102;50.828;4.416;2022-07-15T12:58:25;2.67;;;0.93;;
19879;SDS011;10102;50.828;4.416;2022-07-15T13:00:52;3.10;;;1.10;;
19879;SDS011;10102;50.828;4.416;2022-07-15T13:03:33;2.92;;;1.08;;
19879;SDS011;10102;50.828;4.416;2022-07-15T13:05:59;3.33;;;0.93;;
19879;SDS011;10102;50.828;4.416;2022-07-15T13:08:27;2.47;;;0.95;;
19879;SDS011;10102;50.828;4.416;2022-07-15T13:10:56;1.33;;;0.70;;
19879;SDS011;10102;50.828;4.416;2022-07-15T13:13:25;2.60;;;0.95;;
19879;SDS011;10102;50.828;4.416;2022-07-15T13:15:53;5.38;;;1.20;;
19879;SDS011;10102;50.828;4.416;2022-07-15T13:18:19;34.20;;;2.40;;
19879;SDS011;10102;50.828;4.416;2022-07-15T13:20:45;5.30;;;1.20;;
19879;SDS011;10102;50.828;4.416;2022-07-15T13:23:12;2.47;;;1.00;;
19879;SDS011;10102;50.828;4.416;2022-07-15T13:25:38;8.18;;;1.02;;
19879;SDS011;10102;50.828;4.416;2022-07-15T13:28:06;1.90;;;0.93;;
19879;SDS011;10102;50.828;4.416;2022-07-15T13:30:33;3.13;;;1.25;;
19879;SDS011;10102;50.828;4.416;2022-07-15T13:32:59;3.15;;;1.05;;
19879;SDS011;10102;50.828;4.416;2022-07-15T13:35:25;2.47;;;1.10;;
19879;SDS011;10102;50.828;4.416;2022-07-15T13:37:52;1.75;;;1.05;;
19879;SDS011;10102;50.828;4.416;2022-07-15T13:40:17;4.70;;;1.00;;
19879;SDS011;10102;50.828;4.416;2022-07-15T13:42:44;3.40;;;1.13;;
19879;SDS011;10102;50.828;4.416;2022-07-15T13:45:11;1.33;;;0.85;;
19879;SDS011;10102;50.828;4.416;2022-07-15T13:47:38;3.70;;;1.35;;
19879;SDS011;10102;50.828;4.416;2022-07-15T13:50:05;2.28;;;1.13;;
19879;SDS011;10102;50.828;4.416;2022-07-15T13:52:52;2.90;;;1.23;;
19879;SDS011;10102;50.828;4.416;2022-07-15T13:55:19;2.70;;;1.10;;
19879;SDS011;10102;50.828;4.416;2022-07-15T13:57:46;1.40;;;0.90;;
19879;SDS011;10102;50.828;4.416;2022-07-15T14:00:16;6.25;;;1.60;;
19879;SDS011;10102;50.828;4.416;2022-07-15T14:02:46;3.35;;;1.15;;
19879;SDS011;10102;50.828;4.416;2022-07-15T14:05:13;2.65;;;1.10;;
19879;SDS011;10102;50.828;4.416;2022-07-15T14:07:39;3.65;;;1.23;;
19879;SDS011;10102;50.828;4.416;2022-07-15T14:10:06;3.47;;;1.10;;
19879;SDS011;10102;50.828;4.416;2022-07-15T14:12:32;6.53;;;1.15;;
19879;SDS011;10102;50.828;4.416;2022-07-15T14:14:58;4.53;;;1.20;;
19879;SDS011;10102;50.828;4.416;2022-07-15T14:17:24;4.40;;;1.13;;
19879;SDS011;10102;50.828;4.416;2022-07-15T14:19:51;5.25;;;1.23;;
19879;SDS011;10102;50.828;4.416;2022-07-15T14:22:17;2.88;;;1.40;;
19879;SDS011;10102;50.828;4.416;2022-07-15T14:24:43;3.25;;;1.05;;
19879;SDS011;10102;50.828;4.416;2022-07-15T14:27:08;1.85;;;0.90;;
19879;SDS011;10102;50.828;4.416;2022-07-15T14:29:34;7.07;;;1.17;;
19879;SDS011;10102;50.828;4.416;2022-07-15T14:32:00;1.90;;;1.00;;
19879;SDS011;10102;50.828;4.416;2022-07-15T14:34:26;3.88;;;1.30;;
19879;SDS011;10102;50.828;4.416;2022-07-15T14:36:51;3.95;;;1.38;;
19879;SDS011;10102;50.828;4.416;2022-07-15T14:39:17;3.25;;;1.10;;
19879;SDS011;10102;50.828;4.416;2022-07-15T14:41:43;3.47;;;1.13;;
19879;SDS011;10102;50.828;4.416;2022-07-15T14:44:08;5.20;;;1.60;;
19879;SDS011;10102;50.828;4.416;2022-07-15T14:46:34;3.17;;;1.60;;
19879;SDS011;10102;50.828;4.416;2022-07-15T14:49:00;2.30;;;1.30;;
19879;SDS011;10102;50.828;4.416;2022-07-15T14:51:26;4.30;;;1.13;;
19879;SDS011;10102;50.828;4.416;2022-07-15T14:53:51;5.80;;;1.40;;
19879;SDS011;10102;50.828;4.416;2022-07-15T14:56:17;8.32;;;1.35;;
19879;SDS011;10102;50.828;4.416;2022-07-15T14:58:43;3.83;;;1.42;;
19879;SDS011;10102;50.828;4.416;2022-07-15T15:01:09;1.85;;;1.20;;
19879;SDS011;10102;50.828;4.416;2022-07-15T15:03:34;3.47;;;1.27;;
19879;SDS011;10102;50.828;4.416;2022-07-15T15:06:00;5.00;;;1.35;;
19879;SDS011;10102;50.828;4.416;2022-07-15T15:08:26;3.95;;;1.17;;
19879;SDS011;10102;50.828;4.416;2022-07-15T15:10:52;3.00;;;1.25;;
19879;SDS011;10102;50.828;4.416;2022-07-15T15:13:18;2.35;;;1.10;;
19879;SDS011;10102;50.828;4.416;2022-07-15T15:15:44;6.70;;;1.42;;
19879;SDS011;10102;50.828;4.416;2022-07-15T15:18:10;2.00;;;1.23;;
19879;SDS011;10102;50.828;4.416;2022-07-15T15:20:36;3.80;;;1.23;;
19879;SDS011;10102;50.828;4.416;2022-07-15T15:23:02;2.22;;;1.10;;
19879;SDS011;10102;50.828;4.416;2022-07-15T15:25:28;3.15;;;1.20;;
19879;SDS011;10102;50.828;4.416;2022-07-15T15:28:12;2.97;;;1.10;;
19879;SDS011;10102;50.828;4.416;2022-07-15T15:30:38;3.00;;;1.40;;
19879;SDS011;10102;50.828;4.416;2022-07-15T15:33:04;3.10;;;1.10;;
19879;SDS011;10102;50.828;4.416;2022-07-15T15:35:30;6.10;;;1.23;;